Little Creek, Delaware
Current Conditions -  °F | °C
As of 1:58 PM on Sunday 21 Dec 2014 (Local Time) from KDOV Reporting Station
Clear Clear  
Wind Chill: 37°   Ceiling: Unl
Heat Index: 41°   Visibility: 10mi
Dew Point: 25°   Wind: 7mph
Humidity: 52%   Direction: 290°WNW
Pressure: 30.28"   Gusts: NA
Location:  39.17°N, 75.45°W
Report Text: KDOV 211858Z AUTO 29006KT 10SM CLR 05/M04 A3028 RMK AO2 SLP257 T00511041
Loading
Personal Weather Stations






























Interactive Weather Map New forecast layout! Learn more

10-Day Weather Forecast

Advertisements
Track Severe Weather on mobile